createdAt,value
2023-05-21T00:00:38.933Z,8.27
2023-05-21T00:03:42.316Z,8.68
2023-05-21T00:06:44.697Z,7.78
2023-05-21T00:09:47.228Z,8.55
2023-05-21T00:12:49.453Z,7.60
2023-05-21T00:15:52.111Z,8.48
2023-05-21T00:18:54.707Z,8.20
2023-05-21T00:21:57.505Z,8.30
2023-05-21T00:24:59.966Z,8.32
2023-05-21T00:28:02.770Z,7.57
2023-05-21T00:31:05.025Z,7.60
2023-05-21T00:34:07.558Z,8.13
2023-05-21T00:37:10.080Z,8.05
2023-05-21T00:40:12.922Z,8.20
2023-05-21T00:43:15.267Z,8.00
2023-05-21T00:46:19.827Z,8.30
2023-05-21T00:49:24.449Z,8.45
2023-05-21T00:52:27.500Z,7.97
2023-05-21T00:55:30.360Z,7.62
2023-05-21T00:58:33.973Z,7.80
2023-05-21T01:01:37.302Z,7.72
2023-05-21T01:04:40.117Z,8.50
2023-05-21T01:07:43.404Z,7.68
2023-05-21T01:10:46.014Z,7.47
2023-05-21T01:13:49.936Z,7.70
2023-05-21T01:16:53.661Z,6.95
2023-05-21T01:19:58.051Z,8.02
2023-05-21T01:23:01.822Z,8.07
2023-05-21T01:26:04.990Z,7.80
2023-05-21T01:29:14.181Z,7.75
2023-05-21T01:32:26.189Z,7.20
2023-05-21T01:35:50.514Z,7.62
2023-05-21T01:39:18.858Z,7.78
2023-05-21T01:42:23.643Z,7.97
2023-05-21T01:45:28.964Z,7.97
2023-05-21T01:48:31.776Z,7.47
2023-05-21T01:51:34.471Z,7.50
2023-05-21T01:54:36.911Z,8.05
2023-05-21T01:57:39.316Z,8.25
2023-05-21T02:00:42.185Z,8.10
2023-05-21T02:03:44.766Z,7.37
2023-05-21T02:06:47.088Z,7.90
2023-05-21T02:09:49.642Z,8.07
2023-05-21T02:12:52.941Z,7.78
2023-05-21T02:15:56.261Z,8.05
2023-05-21T02:19:00.636Z,8.07
2023-05-21T02:22:03.314Z,8.00
2023-05-21T02:25:09.277Z,7.15
2023-05-21T02:28:12.715Z,7.78
2023-05-21T02:31:15.041Z,7.43
2023-05-21T02:34:20.535Z,7.47
2023-05-21T02:37:23.010Z,7.90
2023-05-21T02:40:25.605Z,7.65
2023-05-21T02:43:28.100Z,7.45
2023-05-21T02:46:30.781Z,7.37
2023-05-21T02:49:33.501Z,7.75
2023-05-21T02:52:36.039Z,8.20
2023-05-21T02:55:38.456Z,7.20
2023-05-21T02:58:41.643Z,7.37
2023-05-21T03:01:45.229Z,8.13
2023-05-21T03:04:47.928Z,7.45
2023-05-21T03:07:51.347Z,7.60
2023-05-21T03:10:53.848Z,6.70
2023-05-21T03:13:56.055Z,7.15
2023-05-21T03:16:58.652Z,7.90
2023-05-21T03:20:00.875Z,7.35
2023-05-21T03:23:04.338Z,7.28
2023-05-21T03:26:06.553Z,7.53
2023-05-21T03:29:09.128Z,7.28
2023-05-21T03:32:11.624Z,7.28
2023-05-21T03:35:14.211Z,6.62
2023-05-21T03:38:16.596Z,7.25
2023-05-21T03:41:19.133Z,7.25
2023-05-21T03:44:21.767Z,6.60
2023-05-21T03:47:24.715Z,7.15
2023-05-21T03:50:27.037Z,6.87
2023-05-21T03:53:29.601Z,7.15
2023-05-21T03:56:31.843Z,7.10
2023-05-21T03:59:34.369Z,6.87
2023-05-21T04:02:36.800Z,6.85
2023-05-21T04:05:39.395Z,6.82
2023-05-21T04:08:42.689Z,7.22
2023-05-21T04:11:45.419Z,7.07
2023-05-21T04:14:47.861Z,6.82
2023-05-21T04:17:50.412Z,6.93
2023-05-21T04:20:53.792Z,6.70
2023-05-21T04:23:57.592Z,7.30
2023-05-21T04:27:01.400Z,6.70
2023-05-21T04:30:06.067Z,7.30
2023-05-21T04:33:09.970Z,7.30
2023-05-21T04:36:12.509Z,6.90
2023-05-21T04:39:15.659Z,7.20
2023-05-21T04:42:19.423Z,7.12
2023-05-21T04:45:24.541Z,7.45
2023-05-21T04:48:28.760Z,7.45
2023-05-21T04:51:31.379Z,6.93
2023-05-21T04:54:34.119Z,7.62
2023-05-21T04:57:36.626Z,7.47
2023-05-21T05:00:40.283Z,6.82
2023-05-21T05:03:42.654Z,6.87
2023-05-21T05:06:45.294Z,7.35
2023-05-21T05:09:47.529Z,7.12
2023-05-21T05:12:50.100Z,6.95
2023-05-21T05:15:54.778Z,7.28
2023-05-21T05:18:57.530Z,7.20
2023-05-21T05:21:59.704Z,6.87
2023-05-21T05:25:02.232Z,7.43
2023-05-21T05:28:04.679Z,7.37
2023-05-21T05:31:07.657Z,6.75
2023-05-21T05:34:09.859Z,6.50
2023-05-21T05:37:13.462Z,7.05
2023-05-21T05:40:16.077Z,6.50
2023-05-21T05:43:18.785Z,6.53
2023-05-21T05:46:21.107Z,6.57
2023-05-21T05:49:23.769Z,5.93
2023-05-21T05:52:26.196Z,6.03
2023-05-21T05:55:28.641Z,5.90
2023-05-21T05:58:31.170Z,6.40
2023-05-21T06:01:34.538Z,6.15
2023-05-21T06:04:37.076Z,5.72
2023-05-21T06:07:40.922Z,6.15
2023-05-21T06:10:43.408Z,6.75
2023-05-21T06:13:45.824Z,6.12
2023-05-21T06:16:49.327Z,5.50
2023-05-21T06:19:51.584Z,5.93
2023-05-21T06:22:54.140Z,5.93
2023-05-21T06:25:56.682Z,5.72
2023-05-21T06:29:00.908Z,5.87
2023-05-21T06:32:04.473Z,5.57
2023-05-21T06:35:07.684Z,5.32
2023-05-21T06:38:10.099Z,6.70
2023-05-21T06:41:12.652Z,6.03
2023-05-21T06:44:17.146Z,6.25
2023-05-21T06:47:21.630Z,5.72
2023-05-21T06:50:24.720Z,5.28
2023-05-21T06:53:27.788Z,5.78
2023-05-21T06:56:30.550Z,4.95
2023-05-21T06:59:33.013Z,5.15
2023-05-21T07:02:36.412Z,5.82
2023-05-21T07:05:39.463Z,5.78
2023-05-21T07:08:41.936Z,6.25
2023-05-21T07:11:47.088Z,5.40
2023-05-21T07:14:50.614Z,5.75
2023-05-21T07:17:53.259Z,5.30
2023-05-21T07:20:57.088Z,4.93
2023-05-21T07:24:00.171Z,5.90
2023-05-21T07:27:08.740Z,5.80
2023-05-21T07:30:17.031Z,5.03
2023-05-21T07:33:20.722Z,5.28
2023-05-21T07:36:23.526Z,5.18
2023-05-21T07:39:26.153Z,5.50
2023-05-21T07:42:28.704Z,5.30
2023-05-21T07:45:31.277Z,5.20
2023-05-21T07:48:35.459Z,4.80
2023-05-21T07:51:38.254Z,4.82
2023-05-21T07:54:41.086Z,5.60
2023-05-21T07:57:43.493Z,5.40
2023-05-21T08:00:47.571Z,5.55
2023-05-21T08:03:50.415Z,4.80
2023-05-21T08:06:53.760Z,5.20
2023-05-21T08:09:56.525Z,5.03
2023-05-21T08:12:58.825Z,5.05
2023-05-21T08:16:01.687Z,4.68
2023-05-21T08:19:04.458Z,5.03
2023-05-21T08:22:07.632Z,4.70
2023-05-21T08:25:10.175Z,4.43
2023-05-21T08:28:12.790Z,4.97
2023-05-21T08:31:18.379Z,4.87
2023-05-21T08:34:21.058Z,4.72
2023-05-21T08:37:23.701Z,5.28
2023-05-21T08:40:29.444Z,5.07
2023-05-21T08:43:33.604Z,4.78
2023-05-21T08:46:41.722Z,5.28
2023-05-21T08:49:45.530Z,4.78
2023-05-21T08:52:49.928Z,4.68
2023-05-21T08:55:54.108Z,4.95
2023-05-21T08:58:58.754Z,5.20
2023-05-21T09:02:02.131Z,4.78
2023-05-21T09:05:05.744Z,4.80
2023-05-21T09:08:18.867Z,4.80
2023-05-21T09:11:22.427Z,4.95
2023-05-21T09:14:26.448Z,4.55
2023-05-21T09:17:29.671Z,4.53
2023-05-21T09:20:32.666Z,4.75
2023-05-21T09:23:35.396Z,4.75
2023-05-21T09:26:37.699Z,4.43
2023-05-21T09:29:42.197Z,4.50
2023-05-21T09:32:45.920Z,4.07
2023-05-21T09:35:50.016Z,4.45
2023-05-21T09:38:52.472Z,4.03
2023-05-21T09:41:57.460Z,3.90
2023-05-21T09:45:01.037Z,4.00
2023-05-21T09:48:04.419Z,4.45
2023-05-21T09:51:21.324Z,4.10
2023-05-21T09:54:24.536Z,3.80
2023-05-21T09:57:26.858Z,4.30
2023-05-21T10:00:29.396Z,4.20
2023-05-21T10:03:33.462Z,4.22
2023-05-21T10:06:43.707Z,4.43
2023-05-21T10:09:50.103Z,4.20
2023-05-21T10:12:59.634Z,4.60
2023-05-21T10:19:10.994Z,4.57
2023-05-21T10:22:14.142Z,4.07
2023-05-21T10:25:17.414Z,4.10
2023-05-21T10:28:20.399Z,4.35
2023-05-21T10:31:23.490Z,4.40
2023-05-21T10:34:27.996Z,4.32
2023-05-21T10:37:30.365Z,4.10
2023-05-21T10:40:33.051Z,4.10
2023-05-21T10:43:48.870Z,4.15
2023-05-21T10:47:28.960Z,3.92
2023-05-21T10:50:39.957Z,4.35
2023-05-21T10:53:56.678Z,4.20
2023-05-21T10:57:40.793Z,4.43
2023-05-21T11:00:43.950Z,4.07
2023-05-21T11:03:50.014Z,3.90
2023-05-21T11:06:52.634Z,3.80
2023-05-21T11:10:33.502Z,4.00
2023-05-21T11:13:48.812Z,3.50
2023-05-21T11:16:51.272Z,4.22
2023-05-21T11:19:54.709Z,4.12
2023-05-21T11:22:58.260Z,4.05
2023-05-21T11:26:02.018Z,3.70
2023-05-21T11:29:04.127Z,4.12
2023-05-21T11:32:09.242Z,4.20
2023-05-21T11:35:14.031Z,3.80
2023-05-21T11:38:17.884Z,4.18
2023-05-21T11:41:20.255Z,4.53
2023-05-21T11:44:42.802Z,4.12
2023-05-21T11:47:45.030Z,4.05
2023-05-21T11:50:47.532Z,4.12
2023-05-21T11:53:51.217Z,4.18
2023-05-21T11:56:55.104Z,4.00
2023-05-21T11:59:58.587Z,4.78
2023-05-21T12:03:01.976Z,3.97
2023-05-21T12:06:05.750Z,4.50
2023-05-21T12:09:10.101Z,5.07
2023-05-21T12:12:15.112Z,5.22
2023-05-21T12:15:18.271Z,4.47
2023-05-21T12:18:21.839Z,4.47
2023-05-21T12:21:24.099Z,4.62
2023-05-21T12:24:27.185Z,4.70
2023-05-21T12:27:31.254Z,4.70
2023-05-21T12:30:35.147Z,4.47
2023-05-21T12:33:37.475Z,4.65
2023-05-21T12:36:46.162Z,4.65
2023-05-21T12:39:50.472Z,4.78
2023-05-21T12:42:52.980Z,4.72
2023-05-21T12:45:55.209Z,4.62
2023-05-21T12:48:57.652Z,4.87
2023-05-21T12:52:01.796Z,4.30
2023-05-21T12:55:05.522Z,4.72
2023-05-21T12:58:09.187Z,5.10
2023-05-21T13:01:12.429Z,4.87
2023-05-21T13:04:14.778Z,4.97
2023-05-21T13:07:18.238Z,4.78
2023-05-21T13:10:20.476Z,5.00
2023-05-21T13:13:22.957Z,4.40
2023-05-21T13:16:25.347Z,4.80
2023-05-21T13:19:28.082Z,4.87
2023-05-21T13:22:30.444Z,4.68
2023-05-21T13:25:32.950Z,4.70
2023-05-21T13:28:35.166Z,4.72
2023-05-21T13:31:37.688Z,4.12
2023-05-21T13:34:39.898Z,4.93
2023-05-21T13:37:42.683Z,4.62
2023-05-21T13:40:44.847Z,4.57
2023-05-21T13:43:47.296Z,4.30
2023-05-21T13:46:49.660Z,4.45
2023-05-21T13:49:52.398Z,4.40
2023-05-21T13:52:54.705Z,4.65
2023-05-21T13:55:57.211Z,4.37
2023-05-21T13:59:00.111Z,4.40
2023-05-21T14:02:02.758Z,4.50
2023-05-21T14:05:05.523Z,4.68
2023-05-21T14:08:08.143Z,4.20
2023-05-21T14:11:10.676Z,4.68
2023-05-21T14:14:18.724Z,4.68
2023-05-21T14:17:21.337Z,4.95
2023-05-21T14:20:23.539Z,4.70
2023-05-21T14:23:26.037Z,4.53
2023-05-21T14:26:28.253Z,4.85
2023-05-21T14:29:30.710Z,4.45
2023-05-21T14:32:32.906Z,4.53
2023-05-21T14:35:35.797Z,4.70
2023-05-21T14:38:38.099Z,4.55
2023-05-21T14:41:40.713Z,4.85
2023-05-21T14:44:42.853Z,4.60
2023-05-21T14:47:46.014Z,4.87
2023-05-21T14:50:50.040Z,4.57
2023-05-21T14:53:52.474Z,4.28
2023-05-21T14:56:55.238Z,4.68
2023-05-21T14:59:57.725Z,4.85
2023-05-21T15:03:00.599Z,4.55
2023-05-21T15:06:03.474Z,4.60
2023-05-21T15:09:05.720Z,5.03
2023-05-21T15:12:08.214Z,4.80
2023-05-21T15:15:12.226Z,4.30
2023-05-21T15:18:14.749Z,4.62
2023-05-21T15:21:16.977Z,4.85
2023-05-21T15:24:19.534Z,4.32
2023-05-21T15:27:21.772Z,4.60
2023-05-21T15:30:27.165Z,4.80
2023-05-21T15:33:29.401Z,4.55
2023-05-21T15:36:31.877Z,4.50
2023-05-21T15:39:34.071Z,4.70
2023-05-21T15:42:36.641Z,4.62
2023-05-21T15:45:39.360Z,4.65
2023-05-21T15:48:42.079Z,4.57
2023-05-21T15:51:44.355Z,4.62
2023-05-21T15:54:47.232Z,4.45
2023-05-21T15:57:49.853Z,4.50
2023-05-21T16:00:52.529Z,4.70
2023-05-21T16:03:55.467Z,4.82
2023-05-21T16:06:57.742Z,4.70
2023-05-21T16:10:00.308Z,4.40
2023-05-21T16:13:02.513Z,4.85
2023-05-21T16:16:05.310Z,4.75
2023-05-21T16:19:07.633Z,4.53
2023-05-21T16:22:10.898Z,4.82
2023-05-21T16:25:13.370Z,4.37
2023-05-21T16:28:16.134Z,4.45
2023-05-21T16:31:18.418Z,4.85
2023-05-21T16:34:20.923Z,4.60
2023-05-21T16:37:23.145Z,4.20
2023-05-21T16:40:25.860Z,5.07
2023-05-21T16:43:28.030Z,4.50
2023-05-21T16:46:30.656Z,4.82
2023-05-21T16:49:32.912Z,4.87
2023-05-21T16:52:35.367Z,4.53
2023-05-21T16:55:38.538Z,4.57
2023-05-21T16:58:41.238Z,4.43
2023-05-21T17:01:43.496Z,4.62
2023-05-21T17:04:46.393Z,4.43
2023-05-21T17:07:48.657Z,4.68
2023-05-21T17:10:51.201Z,4.55
2023-05-21T17:13:53.404Z,4.50
2023-05-21T17:16:56.084Z,4.68
2023-05-21T17:19:58.493Z,4.30
2023-05-21T17:23:01.210Z,4.82
2023-05-21T17:26:03.509Z,4.53
2023-05-21T17:29:06.205Z,4.80
2023-05-21T17:32:08.486Z,4.45
2023-05-21T17:35:11.110Z,4.20
2023-05-21T17:38:14.077Z,4.40
2023-05-21T17:41:18.957Z,4.60
2023-05-21T17:44:21.629Z,4.65
2023-05-21T17:47:24.146Z,4.53
2023-05-21T17:50:26.654Z,4.68
2023-05-21T17:53:29.161Z,4.90
2023-05-21T17:56:40.455Z,4.90
2023-05-21T17:59:45.164Z,4.87
2023-05-21T18:02:47.442Z,4.97
2023-05-21T18:05:50.586Z,5.05
2023-05-21T18:08:52.820Z,4.70
2023-05-21T18:11:55.541Z,4.37
2023-05-21T18:14:57.992Z,4.55
2023-05-21T18:18:00.488Z,5.62
2023-05-21T18:21:02.720Z,4.87
2023-05-21T18:24:06.403Z,5.10
2023-05-21T18:27:08.564Z,4.95
2023-05-21T18:30:11.565Z,5.35
2023-05-21T18:33:15.344Z,5.20
2023-05-21T18:36:18.674Z,5.60
2023-05-21T18:39:24.514Z,6.75
2023-05-21T18:42:28.181Z,5.65
2023-05-21T18:45:30.552Z,5.60
2023-05-21T18:48:33.108Z,5.65
2023-05-21T18:51:35.339Z,5.87
2023-05-21T18:54:37.905Z,6.03
2023-05-21T18:57:40.374Z,6.30
2023-05-21T19:00:43.375Z,6.00
2023-05-21T19:03:45.584Z,6.35
2023-05-21T19:06:48.060Z,5.65
2023-05-21T19:09:50.255Z,6.60
2023-05-21T19:12:52.725Z,6.32
2023-05-21T19:15:55.040Z,6.65
2023-05-21T19:18:57.597Z,7.03
2023-05-21T19:21:59.797Z,5.93
2023-05-21T19:25:03.119Z,6.75
2023-05-21T19:28:05.335Z,6.95
2023-05-21T19:31:09.973Z,6.60
2023-05-21T19:34:12.156Z,6.97
2023-05-21T19:37:14.683Z,7.45
2023-05-21T19:40:17.756Z,6.53
2023-05-21T19:43:20.264Z,7.15
2023-05-21T19:46:22.780Z,6.80
2023-05-21T19:49:25.275Z,7.03
2023-05-21T19:52:27.454Z,7.28
2023-05-21T19:55:33.288Z,7.00
2023-05-21T19:58:35.599Z,7.22
2023-05-21T20:01:39.986Z,7.28
2023-05-21T20:04:42.634Z,7.50
2023-05-21T20:07:44.944Z,8.70
2023-05-21T20:10:49.665Z,12.10
2023-05-21T20:13:54.302Z,10.55
2023-05-21T20:16:58.452Z,11.12
2023-05-21T20:20:01.454Z,10.35
2023-05-21T20:23:03.977Z,10.50
2023-05-21T20:26:07.176Z,10.50
2023-05-21T20:29:09.635Z,10.82
2023-05-21T20:32:12.357Z,11.98
2023-05-21T20:35:14.846Z,11.45
2023-05-21T20:38:21.033Z,12.18
2023-05-21T20:41:25.197Z,11.18
2023-05-21T20:44:28.823Z,10.98
2023-05-21T20:47:31.444Z,10.60
2023-05-21T20:50:34.796Z,10.20
2023-05-21T20:53:37.315Z,10.50
2023-05-21T20:56:42.684Z,10.88
2023-05-21T20:59:45.684Z,10.48
2023-05-21T21:02:47.902Z,9.98
2023-05-21T21:05:50.643Z,9.93
2023-05-21T21:08:55.450Z,9.73
2023-05-21T21:12:06.272Z,9.57
2023-05-21T21:15:14.206Z,10.40
2023-05-21T21:18:16.769Z,9.65
2023-05-21T21:21:18.926Z,10.05
2023-05-21T21:24:21.393Z,9.98
2023-05-21T21:27:23.592Z,9.88
2023-05-21T21:30:26.043Z,9.73
2023-05-21T21:33:28.453Z,10.45
2023-05-21T21:36:31.328Z,10.02
2023-05-21T21:39:33.552Z,9.95
2023-05-21T21:42:36.377Z,9.80
2023-05-21T21:45:38.615Z,9.70
2023-05-21T21:48:41.060Z,9.68
2023-05-21T21:51:46.785Z,9.05
2023-05-21T21:54:49.296Z,10.18
2023-05-21T21:57:51.466Z,8.95
2023-05-21T22:00:54.131Z,7.72
2023-05-21T22:03:56.683Z,7.93
2023-05-21T22:06:58.969Z,7.25
2023-05-21T22:10:01.647Z,6.68
2023-05-21T22:13:04.865Z,6.45
2023-05-21T22:16:07.833Z,6.87
2023-05-21T22:19:12.686Z,6.50
2023-05-21T22:22:15.201Z,6.10
2023-05-21T22:25:17.795Z,5.75
2023-05-21T22:28:22.389Z,6.03
2023-05-21T22:31:24.938Z,6.37
2023-05-21T22:34:27.501Z,6.28
2023-05-21T22:37:29.843Z,5.95
2023-05-21T22:40:32.364Z,6.30
2023-05-21T22:43:35.521Z,6.57
2023-05-21T22:46:38.356Z,6.45
2023-05-21T22:49:40.959Z,6.30
2023-05-21T22:52:43.610Z,6.53
2023-05-21T22:55:45.833Z,6.50
2023-05-21T22:58:48.280Z,5.75
2023-05-21T23:01:50.664Z,6.37
2023-05-21T23:04:53.154Z,6.00
2023-05-21T23:07:55.417Z,6.55
2023-05-21T23:10:57.969Z,6.35
2023-05-21T23:14:00.548Z,6.05
2023-05-21T23:17:04.439Z,6.50
2023-05-21T23:20:08.822Z,6.60
2023-05-21T23:23:11.299Z,6.12
2023-05-21T23:26:13.505Z,6.25
2023-05-21T23:29:15.963Z,6.43
2023-05-21T23:32:18.312Z,6.55
2023-05-21T23:35:20.802Z,6.30
2023-05-21T23:38:23.033Z,6.53
2023-05-21T23:41:27.521Z,7.65
2023-05-21T23:44:29.716Z,6.80
2023-05-21T23:47:32.184Z,6.62
2023-05-21T23:50:34.539Z,6.30
2023-05-21T23:53:37.005Z,6.47
2023-05-21T23:56:39.248Z,6.00
2023-05-21T23:59:41.756Z,6.12
